createdAt,value
2022-08-10T00:01:53.813Z,65.99
2022-08-10T00:04:24.125Z,66.02
2022-08-10T00:06:54.545Z,66.06
2022-08-10T00:09:24.682Z,66.26
2022-08-10T00:11:52.717Z,66.23
2022-08-10T00:14:20.669Z,66.27
2022-08-10T00:16:48.640Z,66.29
2022-08-10T00:19:18.200Z,66.32
2022-08-10T00:21:47.385Z,66.47
2022-08-10T00:24:15.552Z,66.55
2022-08-10T00:27:51.709Z,66.61
2022-08-10T00:29:31.497Z,66.63
2022-08-10T00:31:59.750Z,66.65
2022-08-10T00:34:28.767Z,66.66
2022-08-10T00:36:57.240Z,66.76
2022-08-10T00:39:26.072Z,66.82
2022-08-10T00:42:07.129Z,66.89
2022-08-10T00:44:40.657Z,66.94
2022-08-10T00:47:17.492Z,66.97
2022-08-10T00:49:57.451Z,67.04
2022-08-10T00:52:27.243Z,67.05
2022-08-10T00:54:55.089Z,67.11
2022-08-10T00:57:23.005Z,67.15
2022-08-10T00:59:59.642Z,67.25
2022-08-10T01:02:30.823Z,67.29
2022-08-10T01:05:09.551Z,67.39
2022-08-10T01:07:58.919Z,67.45
2022-08-10T01:10:34.779Z,67.43
2022-08-10T01:13:38.515Z,67.60
2022-08-10T01:16:26.373Z,67.58
2022-08-10T01:19:34.306Z,67.62
2022-08-10T01:22:26.774Z,67.71
2022-08-10T01:24:54.445Z,67.75
2022-08-10T01:27:29.224Z,67.81
2022-08-10T01:30:06.982Z,67.78
2022-08-10T01:33:06.737Z,67.89
2022-08-10T01:35:44.138Z,67.95
2022-08-10T01:38:17.299Z,68.02
2022-08-10T01:40:55.329Z,68.01
2022-08-10T01:43:25.360Z,68.05
2022-08-10T01:45:56.181Z,68.14
2022-08-10T01:48:31.993Z,68.15
2022-08-10T01:51:25.765Z,68.21
2022-08-10T01:54:03.589Z,68.28
2022-08-10T01:56:33.861Z,68.33
2022-08-10T01:59:04.655Z,68.27
2022-08-10T02:01:39.689Z,68.28
2022-08-10T02:04:10.265Z,68.41
2022-08-10T02:06:43.659Z,68.44
2022-08-10T02:09:21.272Z,68.46
2022-08-10T02:12:05.338Z,68.51
2022-08-10T02:14:57.559Z,68.51
2022-08-10T02:18:00.699Z,68.52
2022-08-10T02:20:20.334Z,68.64
2022-08-10T02:22:52.834Z,68.68
2022-08-10T02:25:41.951Z,68.66
2022-08-10T02:28:12.428Z,68.72
2022-08-10T02:30:57.607Z,68.78
2022-08-10T02:33:27.826Z,68.77
2022-08-10T02:35:57.429Z,68.85
2022-08-10T02:38:59.062Z,68.84
2022-08-10T02:45:14.588Z,69.04
2022-08-10T02:45:20.484Z,69.04
2022-08-10T02:47:46.594Z,69.09
2022-08-10T02:50:29.668Z,69.10
2022-08-10T02:53:10.171Z,69.15
2022-08-10T02:56:03.312Z,69.25
2022-08-10T02:58:57.618Z,69.27
2022-08-10T03:01:31.912Z,69.25
2022-08-10T03:04:03.107Z,69.44
2022-08-10T03:06:35.360Z,69.47
2022-08-10T03:09:07.723Z,69.44
2022-08-10T03:12:35.923Z,69.41
2022-08-10T03:14:25.465Z,69.53
2022-08-10T03:16:54.643Z,69.52
2022-08-10T03:20:35.674Z,69.59
2022-08-10T03:22:11.875Z,69.62
2022-08-10T03:24:39.883Z,69.68
2022-08-10T03:27:08.067Z,69.68
2022-08-10T03:30:29.627Z,69.74
2022-08-10T03:32:24.223Z,69.79
2022-08-10T03:34:53.821Z,69.81
2022-08-10T03:37:21.699Z,69.85
2022-08-10T03:39:51.351Z,69.87
2022-08-10T03:42:19.336Z,69.85
2022-08-10T03:44:50.540Z,69.88
2022-08-10T03:47:20.413Z,69.90
2022-08-10T03:49:48.955Z,69.95
2022-08-10T03:52:18.012Z,70.02
2022-08-10T03:54:45.932Z,70.11
2022-08-10T03:57:13.972Z,70.06
2022-08-10T03:59:41.757Z,70.01
2022-08-10T04:02:44.420Z,70.04
2022-08-10T04:04:57.309Z,70.06
2022-08-10T04:07:25.074Z,70.07
2022-08-10T04:09:55.021Z,70.02
2022-08-10T04:12:24.532Z,70.09
2022-08-10T04:14:53.689Z,70.10
2022-08-10T04:18:02.940Z,70.08
2022-08-10T04:20:19.543Z,70.25
2022-08-10T04:22:51.712Z,70.22
2022-08-10T04:25:21.427Z,70.31
2022-08-10T04:27:49.939Z,70.25
2022-08-10T04:30:17.780Z,70.25
2022-08-10T04:32:47.802Z,70.35
2022-08-10T04:35:19.350Z,70.33
2022-08-10T04:37:48.816Z,70.32
2022-08-10T04:40:28.354Z,70.22
2022-08-10T04:43:02.440Z,70.09
2022-08-10T04:45:48.612Z,70.00
2022-08-10T04:48:43.295Z,70.14
2022-08-10T04:51:17.602Z,70.19
2022-08-10T04:54:05.273Z,70.03
2022-08-10T04:56:36.813Z,70.03
2022-08-10T04:59:09.690Z,69.97
2022-08-10T05:02:22.664Z,69.95
2022-08-10T05:04:36.278Z,69.75
2022-08-10T05:07:16.671Z,69.81
2022-08-10T05:10:01.474Z,69.51
2022-08-10T05:12:36.911Z,69.71
2022-08-10T05:15:12.481Z,69.67
2022-08-10T05:18:03.280Z,69.52
2022-08-10T05:20:29.362Z,69.38
2022-08-10T05:22:57.460Z,69.14
2022-08-10T05:25:24.966Z,69.14
2022-08-10T05:27:52.638Z,69.14
2022-08-10T05:30:21.808Z,69.04
2022-08-10T05:32:55.294Z,68.70
2022-08-10T05:35:26.474Z,68.83
2022-08-10T05:38:09.004Z,68.80
2022-08-10T05:40:42.602Z,68.77
2022-08-10T05:43:17.211Z,68.68
2022-08-10T05:46:19.635Z,68.53
2022-08-10T05:48:41.560Z,68.53
2022-08-10T05:51:22.813Z,68.19
2022-08-10T05:54:01.983Z,67.86
2022-08-10T05:56:54.798Z,67.84
2022-08-10T06:00:30.970Z,67.42
2022-08-10T06:02:32.897Z,67.13
2022-08-10T06:04:55.776Z,67.34
2022-08-10T06:07:23.507Z,67.24
2022-08-10T06:09:59.379Z,67.02
2022-08-10T06:12:30.659Z,66.59
2022-08-10T06:15:06.014Z,66.49
2022-08-10T06:17:37.751Z,66.31
2022-08-10T06:20:05.939Z,66.40
2022-08-10T06:22:33.805Z,66.02
2022-08-10T06:27:49.377Z,65.54
2022-08-10T06:30:20.011Z,65.40
2022-08-10T06:32:51.967Z,65.56
2022-08-10T06:35:19.545Z,65.25
2022-08-10T06:37:51.529Z,64.99
2022-08-10T06:40:20.162Z,64.81
2022-08-10T06:42:48.482Z,64.39
2022-08-10T06:45:17.009Z,64.43
2022-08-10T06:47:51.872Z,64.16
2022-08-10T06:50:34.994Z,63.99
2022-08-10T06:53:14.560Z,64.11
2022-08-10T06:55:55.437Z,63.74
2022-08-10T06:58:26.900Z,63.57
2022-08-10T07:00:55.109Z,63.46
2022-08-10T07:03:23.872Z,63.15
2022-08-10T07:05:51.572Z,62.75
2022-08-10T07:08:19.943Z,62.45
2022-08-10T07:10:47.706Z,62.15
2022-08-10T07:13:15.908Z,61.85
2022-08-10T07:16:04.392Z,61.90
2022-08-10T07:18:31.951Z,61.29
2022-08-10T07:21:01.987Z,61.10
2022-08-10T07:23:57.923Z,61.36
2022-08-10T07:26:18.291Z,60.97
2022-08-10T07:28:48.072Z,60.60
2022-08-10T07:31:54.421Z,60.18
2022-08-10T07:34:06.681Z,60.14
2022-08-10T07:36:34.906Z,60.05
2022-08-10T07:39:03.008Z,59.80
2022-08-10T07:41:32.061Z,59.16
2022-08-10T07:44:00.057Z,58.54
2022-08-10T07:46:27.700Z,58.34
2022-08-10T07:48:59.059Z,58.54
2022-08-10T07:51:26.681Z,58.40
2022-08-10T07:53:54.294Z,57.92
2022-08-10T07:56:47.245Z,57.54
2022-08-10T07:59:11.044Z,56.95
2022-08-10T08:01:50.389Z,56.82
2022-08-10T08:04:18.797Z,56.73
2022-08-10T08:06:46.887Z,56.45
2022-08-10T08:09:14.585Z,55.82
2022-08-10T08:11:43.313Z,55.66
2022-08-10T08:14:11.550Z,55.06
2022-08-10T08:16:40.887Z,54.66
2022-08-10T08:19:26.851Z,54.23
2022-08-10T08:24:15.034Z,53.95
2022-08-10T08:24:44.474Z,54.31
2022-08-10T08:27:16.899Z,53.60
2022-08-10T08:29:46.737Z,52.83
2022-08-10T08:32:22.671Z,52.43
2022-08-10T08:34:57.982Z,52.52
2022-08-10T08:38:30.471Z,52.31
2022-08-10T08:40:17.318Z,52.23
2022-08-10T08:42:48.852Z,51.86
2022-08-10T08:45:35.489Z,51.93
2022-08-10T08:48:14.981Z,51.13
2022-08-10T08:50:57.353Z,51.17
2022-08-10T08:54:02.267Z,50.60
2022-08-10T08:56:25.493Z,50.33
2022-08-10T08:58:58.903Z,50.07
2022-08-10T09:01:40.231Z,49.62
2022-08-10T09:04:27.787Z,49.06
2022-08-10T09:08:00.393Z,48.78
2022-08-10T09:10:13.808Z,47.56
2022-08-10T09:12:50.707Z,45.26
2022-08-10T09:15:39.532Z,44.44
2022-08-10T09:18:11.432Z,43.28
2022-08-10T09:20:54.099Z,42.47
2022-08-10T09:24:01.398Z,42.28
2022-08-10T09:26:33.822Z,40.87
2022-08-10T09:29:12.734Z,39.81
2022-08-10T09:31:55.820Z,37.63
2022-08-10T09:36:24.759Z,35.50
2022-08-10T09:37:42.541Z,33.45
2022-08-10T09:41:00.449Z,30.36
2022-08-10T09:43:25.306Z,26.69
2022-08-10T09:46:13.000Z,24.14
2022-08-10T09:48:50.333Z,23.57
2022-08-10T09:51:44.396Z,22.51
2022-08-10T09:54:14.390Z,22.75
2022-08-10T09:57:24.568Z,21.26
2022-08-10T10:00:01.955Z,20.44
2022-08-10T10:02:55.542Z,19.77
2022-08-10T10:05:24.753Z,18.74
2022-08-10T10:08:06.413Z,17.88
2022-08-10T10:10:36.464Z,16.21
2022-08-10T10:13:18.117Z,15.24
2022-08-10T10:16:05.622Z,14.06
2022-08-10T10:18:40.580Z,12.97
2022-08-10T10:21:24.064Z,12.28
2022-08-10T10:24:22.980Z,12.71
2022-08-10T10:26:50.678Z,12.99
2022-08-10T10:29:58.629Z,13.84
2022-08-10T10:32:36.786Z,14.89
2022-08-10T10:35:24.675Z,15.90
2022-08-10T10:38:01.200Z,16.85
2022-08-10T10:40:45.536Z,17.71
2022-08-10T10:43:19.831Z,18.68
2022-08-10T10:45:50.964Z,19.58
2022-08-10T10:48:24.099Z,19.36
2022-08-10T10:51:07.171Z,18.34
2022-08-10T10:53:44.521Z,17.32
2022-08-10T10:56:15.415Z,16.60
2022-08-10T10:58:43.716Z,15.62
2022-08-10T11:01:18.718Z,14.91
2022-08-10T11:03:59.177Z,14.40
2022-08-10T11:06:45.663Z,14.55
2022-08-10T11:10:05.450Z,15.37
2022-08-10T11:12:19.731Z,16.27
2022-08-10T11:15:23.346Z,17.01
2022-08-10T11:18:17.400Z,17.97
2022-08-10T11:20:52.221Z,18.88
2022-08-10T11:23:37.138Z,19.68
2022-08-10T11:26:04.729Z,19.68
2022-08-10T11:29:03.746Z,19.56
2022-08-10T11:31:45.277Z,19.96
2022-08-10T11:34:46.792Z,20.29
2022-08-10T11:37:03.780Z,21.06
2022-08-10T11:39:34.903Z,21.77
2022-08-10T11:42:19.135Z,22.61
2022-08-10T11:44:54.114Z,22.91
2022-08-10T11:47:41.892Z,23.45
2022-08-10T11:50:31.779Z,24.16
2022-08-10T11:53:05.618Z,24.59
2022-08-10T11:55:33.696Z,25.47
2022-08-10T11:58:27.566Z,26.03
2022-08-10T12:01:02.139Z,26.03
2022-08-10T12:03:35.012Z,26.43
2022-08-10T12:06:03.038Z,26.84
2022-08-10T12:10:05.208Z,27.37
2022-08-10T12:11:24.632Z,27.58
2022-08-10T12:14:19.763Z,27.61
2022-08-10T12:16:45.380Z,27.78
2022-08-10T12:19:21.064Z,28.37
2022-08-10T12:21:54.063Z,28.59
2022-08-10T12:24:21.665Z,28.96
2022-08-10T12:26:56.252Z,28.80
2022-08-10T12:29:29.953Z,28.87
2022-08-10T12:32:07.865Z,29.26
2022-08-10T12:34:54.400Z,29.12
2022-08-10T12:37:40.637Z,29.37
2022-08-10T12:44:04.524Z,29.47
2022-08-10T12:45:57.455Z,29.93
2022-08-10T12:48:31.212Z,29.89
2022-08-10T12:51:06.888Z,29.60
2022-08-10T12:53:40.507Z,29.39
2022-08-10T12:56:08.571Z,29.70
2022-08-10T12:58:59.134Z,29.54
2022-08-10T13:02:06.218Z,29.46
2022-08-10T13:04:29.050Z,29.90
2022-08-10T13:06:57.796Z,29.79
2022-08-10T13:09:26.196Z,30.26
2022-08-10T13:12:35.583Z,30.47
2022-08-10T13:14:48.833Z,30.61
2022-08-10T13:17:21.474Z,30.64
2022-08-10T13:19:55.446Z,30.67
2022-08-10T13:22:25.706Z,30.87
2022-08-10T13:24:55.869Z,31.12
2022-08-10T13:28:01.466Z,30.98
2022-08-10T13:30:16.242Z,31.07
2022-08-10T13:32:48.498Z,31.20
2022-08-10T13:35:19.578Z,31.43
2022-08-10T13:37:47.467Z,31.71
2022-08-10T13:40:16.336Z,31.70
2022-08-10T13:42:44.288Z,31.79
2022-08-10T13:45:14.754Z,31.89
2022-08-10T13:47:49.676Z,31.92
2022-08-10T13:50:20.453Z,32.15
2022-08-10T13:52:51.056Z,31.97
2022-08-10T13:55:21.306Z,32.11
2022-08-10T13:57:49.492Z,32.29
2022-08-10T14:00:34.596Z,32.68
2022-08-10T14:03:06.300Z,32.48
2022-08-10T14:05:35.341Z,32.89
2022-08-10T14:08:03.212Z,32.68
2022-08-10T14:11:08.569Z,32.91
2022-08-10T14:13:25.338Z,33.12
2022-08-10T14:15:53.443Z,32.95
2022-08-10T14:18:21.463Z,33.11
2022-08-10T14:20:49.143Z,33.21
2022-08-10T14:23:16.734Z,33.37
2022-08-10T14:25:49.415Z,33.50
2022-08-10T14:28:18.564Z,33.57
2022-08-10T14:30:49.259Z,33.86
2022-08-10T14:33:16.868Z,33.90
2022-08-10T14:36:21.465Z,33.88
2022-08-10T14:38:33.613Z,33.94
2022-08-10T14:41:01.912Z,34.06
2022-08-10T14:43:38.578Z,34.02
2022-08-10T14:46:17.361Z,33.94
2022-08-10T14:48:47.848Z,33.98
2022-08-10T14:51:19.254Z,33.69
2022-08-10T14:53:50.907Z,33.88
2022-08-10T14:56:24.391Z,33.88
2022-08-10T14:58:59.126Z,33.65
2022-08-10T15:02:00.000Z,33.48
2022-08-10T15:04:26.863Z,33.34
2022-08-10T15:07:12.127Z,33.20
2022-08-10T15:10:00.373Z,33.17
2022-08-10T15:12:33.403Z,33.02
2022-08-10T15:15:01.306Z,32.91
2022-08-10T15:17:29.889Z,32.60
2022-08-10T15:20:14.362Z,32.62
2022-08-10T15:22:45.695Z,32.53
2022-08-10T15:25:19.194Z,32.33
2022-08-10T15:27:54.378Z,32.35
2022-08-10T15:30:29.962Z,32.67
2022-08-10T15:33:21.193Z,32.88
2022-08-10T15:36:25.473Z,33.17
2022-08-10T15:40:26.041Z,33.45
2022-08-10T15:42:11.319Z,33.86
2022-08-10T15:44:39.932Z,34.09
2022-08-10T15:47:21.460Z,34.26
2022-08-10T15:49:53.660Z,34.49
2022-08-10T15:52:39.524Z,34.65
2022-08-10T15:55:42.883Z,34.76
2022-08-10T15:58:07.688Z,34.99
2022-08-10T16:00:37.749Z,34.99
2022-08-10T16:03:24.945Z,35.18
2022-08-10T16:06:02.541Z,35.13
2022-08-10T16:08:56.374Z,35.16
2022-08-10T16:11:37.767Z,35.25
2022-08-10T16:14:13.680Z,35.10
2022-08-10T16:16:41.946Z,35.14
2022-08-10T16:19:22.394Z,35.21
2022-08-10T16:21:56.605Z,35.37
2022-08-10T16:24:24.481Z,35.38
2022-08-10T16:26:52.548Z,35.42
2022-08-10T16:29:21.903Z,35.52
2022-08-10T16:31:51.729Z,35.45
2022-08-10T16:34:19.319Z,35.54
2022-08-10T16:36:56.854Z,35.56
2022-08-10T16:39:57.987Z,35.61
2022-08-10T16:42:17.764Z,35.74
2022-08-10T16:44:57.305Z,35.69
2022-08-10T16:47:27.497Z,35.85
2022-08-10T16:49:56.007Z,35.90
2022-08-10T16:52:29.272Z,36.14
2022-08-10T16:54:57.611Z,36.30
2022-08-10T16:57:26.589Z,36.37
2022-08-10T16:59:54.163Z,36.61
2022-08-10T17:02:21.784Z,36.63
2022-08-10T17:06:01.706Z,36.95
2022-08-10T17:08:10.473Z,36.92
2022-08-10T17:10:38.116Z,37.15
2022-08-10T17:13:06.248Z,37.25
2022-08-10T17:15:34.255Z,37.28
2022-08-10T17:18:02.931Z,37.63
2022-08-10T17:20:32.870Z,37.71
2022-08-10T17:23:01.771Z,37.77
2022-08-10T17:25:48.309Z,37.95
2022-08-10T17:28:35.554Z,38.13
2022-08-10T17:31:23.555Z,38.50
2022-08-10T17:33:59.987Z,38.88
2022-08-10T17:36:33.492Z,39.09
2022-08-10T17:39:01.025Z,39.20
2022-08-10T17:41:29.517Z,39.48
2022-08-10T17:44:03.047Z,39.71
2022-08-10T17:46:32.398Z,39.89
2022-08-10T17:49:00.470Z,40.30
2022-08-10T17:51:30.924Z,40.47
2022-08-10T17:53:58.933Z,40.84
2022-08-10T17:56:26.595Z,41.05
2022-08-10T17:58:56.536Z,41.05
2022-08-10T18:01:40.711Z,41.51
2022-08-10T18:04:13.301Z,41.64
2022-08-10T18:06:41.341Z,41.98
2022-08-10T18:09:11.436Z,42.05
2022-08-10T18:11:42.693Z,42.42
2022-08-10T18:14:10.281Z,42.65
2022-08-10T18:16:41.819Z,42.92
2022-08-10T18:19:12.057Z,43.09
2022-08-10T18:21:40.409Z,43.13
2022-08-10T18:24:27.162Z,43.59
2022-08-10T18:26:54.725Z,43.83
2022-08-10T18:29:24.803Z,44.21
2022-08-10T18:31:56.572Z,44.44
2022-08-10T18:34:24.156Z,44.53
2022-08-10T18:36:52.168Z,44.93
2022-08-10T18:39:29.989Z,45.13
2022-08-10T18:42:04.975Z,45.28
2022-08-10T18:44:37.419Z,45.47
2022-08-10T18:47:07.030Z,45.90
2022-08-10T18:49:37.576Z,46.02
2022-08-10T18:52:08.616Z,46.19
2022-08-10T18:54:39.489Z,46.54
2022-08-10T18:57:22.735Z,46.60
2022-08-10T19:00:03.599Z,46.95
2022-08-10T19:02:36.067Z,47.05
2022-08-10T19:05:30.218Z,47.40
2022-08-10T19:08:30.074Z,47.41
2022-08-10T19:10:58.580Z,47.74
2022-08-10T19:13:32.766Z,47.89
2022-08-10T19:16:09.316Z,48.10
2022-08-10T19:18:46.862Z,48.15
2022-08-10T19:21:17.366Z,48.58
2022-08-10T19:23:53.813Z,48.67
2022-08-10T19:26:44.270Z,48.92
2022-08-10T19:30:11.666Z,49.32
2022-08-10T19:32:21.061Z,49.49
2022-08-10T19:35:07.254Z,49.72
2022-08-10T19:37:37.502Z,50.05
2022-08-10T19:40:06.209Z,50.08
2022-08-10T19:42:48.678Z,50.31
2022-08-10T19:45:55.878Z,50.33
2022-08-10T19:48:26.116Z,50.79
2022-08-10T19:50:56.317Z,50.83
2022-08-10T19:53:36.067Z,51.08
2022-08-10T19:56:32.700Z,51.08
2022-08-10T19:59:03.425Z,51.29
2022-08-10T20:01:54.478Z,51.51
2022-08-10T20:04:22.863Z,51.62
2022-08-10T20:07:14.374Z,51.79
2022-08-10T20:10:02.477Z,51.95
2022-08-10T20:12:48.271Z,52.10
2022-08-10T20:15:21.065Z,52.28
2022-08-10T20:17:55.265Z,52.37
2022-08-10T20:20:29.174Z,52.62
2022-08-10T20:23:10.238Z,52.55
2022-08-10T20:25:38.134Z,52.72
2022-08-10T20:28:13.439Z,52.79
2022-08-10T20:30:55.998Z,52.97
2022-08-10T20:33:28.348Z,53.09
2022-08-10T20:36:25.398Z,53.10
2022-08-10T20:39:11.692Z,53.31
2022-08-10T20:42:06.172Z,53.37
2022-08-10T20:44:53.859Z,53.52
2022-08-10T20:47:24.338Z,53.64
2022-08-10T20:50:10.955Z,53.69
2022-08-10T20:52:38.562Z,53.73
2022-08-10T20:55:08.635Z,53.91
2022-08-10T20:57:54.709Z,53.95
2022-08-10T21:00:24.588Z,54.05
2022-08-10T21:03:15.884Z,54.18
2022-08-10T21:05:54.816Z,54.26
2022-08-10T21:08:30.763Z,54.42
2022-08-10T21:11:12.058Z,54.59
2022-08-10T21:13:58.318Z,54.62
2022-08-10T21:16:47.342Z,54.68
2022-08-10T21:19:34.110Z,54.81
2022-08-10T21:22:01.771Z,54.95
2022-08-10T21:24:31.770Z,55.23
2022-08-10T21:27:33.590Z,55.19
2022-08-10T21:30:11.256Z,55.37
2022-08-10T21:32:51.217Z,55.49
2022-08-10T21:35:36.633Z,55.62
2022-08-10T21:38:28.462Z,55.74
2022-08-10T21:41:17.615Z,55.70
2022-08-10T21:44:05.061Z,55.91
2022-08-10T21:46:55.335Z,56.00
2022-08-10T21:49:45.426Z,56.08
2022-08-10T21:52:39.188Z,56.27
2022-08-10T21:55:57.450Z,56.39
2022-08-10T21:58:45.170Z,56.62
2022-08-10T22:01:39.488Z,56.62
2022-08-10T22:04:26.730Z,56.75
2022-08-10T22:07:12.974Z,56.84
2022-08-10T22:10:01.680Z,56.95
2022-08-10T22:13:00.051Z,57.06
2022-08-10T22:16:10.718Z,57.27
2022-08-10T22:19:01.836Z,57.32
2022-08-10T22:21:53.187Z,57.39
2022-08-10T22:24:41.310Z,57.47
2022-08-10T22:27:47.091Z,57.48
2022-08-10T22:30:43.823Z,57.59
2022-08-10T22:33:36.834Z,57.65
2022-08-10T22:36:22.873Z,57.79
2022-08-10T22:39:13.436Z,57.89
2022-08-10T22:42:32.334Z,57.89
2022-08-10T22:45:38.759Z,57.95
2022-08-10T22:48:25.535Z,58.01
2022-08-10T22:50:54.508Z,57.96
2022-08-10T22:53:47.320Z,58.06
2022-08-10T22:56:36.350Z,58.12
2022-08-10T22:59:04.639Z,58.23
2022-08-10T23:02:07.858Z,58.29
2022-08-10T23:04:52.810Z,58.29
2022-08-10T23:07:21.849Z,58.37
2022-08-10T23:09:57.569Z,58.43
2022-08-10T23:12:29.773Z,58.45
2022-08-10T23:15:16.548Z,58.55
2022-08-10T23:18:06.555Z,58.72
2022-08-10T23:20:35.358Z,58.76
2022-08-10T23:23:07.565Z,58.79
2022-08-10T23:25:56.234Z,58.74
2022-08-10T23:28:58.112Z,58.80
2022-08-10T23:31:13.944Z,58.93
2022-08-10T23:33:41.483Z,58.93
2022-08-10T23:36:34.656Z,59.07
2022-08-10T23:39:26.526Z,59.06
2022-08-10T23:41:46.727Z,59.16
2022-08-10T23:44:21.232Z,59.17
2022-08-10T23:46:48.860Z,59.22
2022-08-10T23:49:16.411Z,59.32
2022-08-10T23:51:56.281Z,59.28
2022-08-10T23:54:24.899Z,59.36
2022-08-10T23:57:01.089Z,59.46
2022-08-10T23:59:29.749Z,59.56
